Flight Track Log - Related Links

Times and Time Zones

All times are in EDT time to prevent confusion due to time zone crossing. See the SWA303 flight status page for this flight to view local times or setup timezone preferences in your user account.

Time Position Orientation Groundspeed Altitude Reporting Facility
EDT Latitude Longitude Course Direction KTS MPH feet Rate Location/Type
Sun 02:21:59 PM 39.8761 -104.5917 69° East 175 201 6,900  Level Denver Center
Sun 02:22:16 PM 39.8833 -104.5667 69° East 196 226 7,500 2,129 Climbing Denver TRACON
Sun 02:24:03 PM 39.8736 -104.3894 94° East 305 351 11,300 2,571 Climbing Denver Center
Sun 02:25:04 PM 39.8733 -104.2622 90° East 351 404 14,700 3,073 Climbing Denver Center
Sun 02:26:06 PM 39.8728 -104.1181 90° East 371 427 17,600 2,565 Climbing Denver Center
Sun 02:27:08 PM 39.8708 -103.9753 91° East 395 455 20,000 2,419 Climbing Denver Center
Sun 02:28:10 PM 39.8758 -103.8261 87° East 412 474 22,600 2,371 Climbing Denver Center
Sun 02:29:12 PM 39.8922 -103.6625 83° East 410 472 24,900 2,000 Climbing Denver Center
Sun 02:30:13 PM 39.9103 -103.5011 82° East 441 507 26,700 1,756 Climbing Denver Center
Sun 02:31:15 PM 39.9292 -103.3339 82° East 461 531 28,500 1,597 Climbing Denver Center
Sun 02:32:17 PM 39.9489 -103.1625 81° East 471 542 30,000 1,355 Climbing Denver Center
Sun 02:33:19 PM 39.9697 -102.9867 81° East 486 559 31,300 1,403 Climbing Denver Center
Sun 02:34:21 PM 39.9869 -102.8053 83° East 500 575 32,900 1,597 Climbing Denver Center
Sun 02:35:23 PM 40.0072 -102.6133 82° East 496 571 34,600 1,512 Climbing Denver Center
Sun 02:36:24 PM 40.0258 -102.4453 82° East 490 564 36,000 1,171 Climbing Denver Center
Sun 02:37:26 PM 40.0450 -102.2483 83° East 490 564 37,000 484 Climbing Denver Center
Sun 02:38:28 PM 40.0642 -102.0778 82° East 496 571 37,000  Level Denver Center
Sun 02:39:30 PM 40.0831 -101.8839 83° East 485 558 37,000  Level Denver Center
Sun 02:40:32 PM 40.0986 -101.7172 83° East 485 558 37,000  Level Denver Center
Sun 02:41:34 PM 40.1164 -101.5228 83° East 484 557 37,000  Level Denver Center
Sun 02:42:35 PM 40.1331 -101.3592 82° East 479 551 37,000  Level Denver Center
Sun 02:43:37 PM 40.1519 -101.1669 83° East 479 551 37,000  Level Denver Center
Sun 02:44:39 PM 40.1669 -101.0019 83° East 479 551 37,000  Level Denver Center
Sun 02:45:41 PM 40.1844 -100.8086 83° East 482 555 37,000  Level Denver Center
Sun 02:46:42 PM 40.1986 -100.6422 84° East 484 557 37,000  Level Denver Center
Sun 02:47:44 PM 40.2069 -100.4464 87° East 487 560 37,000  Level Denver Center
Sun 02:48:46 PM 40.2086 -100.2753 89° East 493 567 37,000  Level Denver Center
Sun 02:49:48 PM 40.2114 -100.1067 89° East 489 563 37,000  Level Denver Center
Sun 02:50:49 PM 40.2133 -99.9078 89° East 493 567 37,000  Level Denver Center
Sun 02:51:51 PM 40.2167 -99.7319 89° East 490 564 37,000  Level Denver Center
Sun 02:52:53 PM 40.2172 -99.5533 90° East 492 566 37,000  Level Denver Center
Sun 02:53:54 PM 40.2194 -99.3775 89° East 489 563 37,000  Level Denver Center
Sun 02:54:56 PM 40.2256 -99.2031 87° East 485 558 37,000  Level Denver Center
Sun 02:55:58 PM 40.2306 -98.9919 88° East 486 559 37,000  Level Denver Center
Sun 02:57:00 PM 40.2344 -98.8156 88° East 488 562 37,000  Level Denver Center
Sun 02:58:01 PM 40.2381 -98.6392 88° East 487 560 37,000  Level Denver Center
Sun 02:58:16 PM 40.2383 -98.6039 89° East 488 562 37,000  Level Minneapolis Center
Sun 02:59:17 PM 40.2408 -98.4283 89° East 487 560 37,000  Level Minneapolis Center
Sun 03:00:19 PM 40.2433 -98.2525 89° East 486 559 37,000  Level Minneapolis Center
Sun 03:01:20 PM 40.2469 -98.0414 89° East 486 559 37,000  Level Minneapolis Center
Sun 03:02:22 PM 40.2494 -97.8636 89° East 489 563 37,000  Level Minneapolis Center
Sun 03:03:23 PM 40.2517 -97.6858 89° East 490 564 37,000  Level Minneapolis Center
Sun 03:04:25 PM 40.2522 -97.5097 90° East 487 560 37,000  Level Minneapolis Center
Sun 03:05:27 PM 40.2539 -97.3344 89° East 485 558 37,000  Level Minneapolis Center
Sun 03:06:28 PM 40.2556 -97.1619 89° East 486 559 37,000  Level Minneapolis Center
Sun 03:07:30 PM 40.2561 -96.9864 90° East 485 558 37,000  Level Minneapolis Center
Sun 03:08:31 PM 40.2567 -96.8111 90° East 484 557 37,000  Level Minneapolis Center
Sun 03:09:33 PM 40.2564 -96.6006 90° East 485 558 37,000  Level Minneapolis Center
Sun 03:10:34 PM 40.2575 -96.4250 89° East 484 557 37,000  Level Minneapolis Center
Sun 03:11:35 PM 40.2569 -96.2481 90° East 488 562 37,000  Level Minneapolis Center
Sun 03:12:37 PM 40.2558 -96.0739 90° East 485 558 37,000  Level Minneapolis Center
Sun 03:13:38 PM 40.2550 -95.8969 90° East 486 559 37,000  Level Minneapolis Center
Sun 03:14:40 PM 40.2550 -95.7225 90° East 485 558 37,000  Level Minneapolis Center
Sun 03:15:41 PM 40.2536 -95.5497 91° East 479 551 37,000  Level Minneapolis Center
Sun 03:16:42 PM 40.2525 -95.3422 90° East 478 550 37,000  Level Minneapolis Center
Sun 03:17:44 PM 40.2503 -95.1703 91° East 476 548 37,000 293 Level Minneapolis Center
Sun 03:18:45 PM 40.2489 -94.9958 91° East 479 551 37,600 780 Climbing Minneapolis Center
Sun 03:19:47 PM 40.2472 -94.8183 91° East 485 558 38,600 683 Climbing Minneapolis Center
Sun 03:20:48 PM 40.2433 -94.6422 92° East 486 559 39,000 197 Climbing Minneapolis Center
Sun 03:21:49 PM 40.2400 -94.4586 91° East 489 563 39,000  Level Minneapolis Center
Sun 03:22:51 PM 40.2381 -94.2808 91° East 491 565 39,000  Level Minneapolis Center
Sun 03:23:12 PM 40.2342 -94.2206 95° East 488 562 39,000  Level Kansas City Center
Sun 03:24:12 PM 40.2281 -94.0361 92° East 488 562 39,000  Level Kansas City Center
Sun 03:25:15 PM 40.2242 -93.8628 92° East 485 558 39,000  Level Kansas City Center
Sun 03:26:16 PM 40.2194 -93.6900 92° East 480 552 39,000  Level Kansas City Center
Sun 03:27:19 PM 40.2169 -93.5189 91° East 477 549 39,000  Level Kansas City Center
Sun 03:28:20 PM 40.2108 -93.3117 92° East 480 552 39,000  Level Kansas City Center
Sun 03:29:21 PM 40.2072 -93.1397 92° East 478 550 39,000  Level Kansas City Center
Sun 03:30:24 PM 40.2019 -92.9669 92° East 476 548 39,000  Level Kansas City Center
Sun 03:31:26 PM 40.1967 -92.8017 92° East 475 547 39,000  Level Kansas City Center
Sun 03:32:29 PM 40.1903 -92.6067 92° East 481 554 39,000  Level Kansas City Center
Sun 03:33:30 PM 40.1886 -92.4414 91° East 479 551 39,000  Level Kansas City Center
Sun 03:34:32 PM 40.1803 -92.2553 93° East 486 559 39,000  Level Kansas City Center
Sun 03:35:32 PM 40.1728 -92.0819 93° East 486 559 39,000  Level Kansas City Center
Sun 03:36:36 PM 40.1669 -91.9067 92° East 486 559 39,000  Level Kansas City Center
Sun 03:37:36 PM 40.1578 -91.6964 93° East 488 562 39,000  Level Kansas City Center
Sun 03:38:40 PM 40.1503 -91.5225 93° East 485 558 39,000  Level Kansas City Center
Sun 03:39:40 PM 40.1444 -91.3486 92° East 484 557 39,000  Level Kansas City Center
Sun 03:40:42 PM 40.1356 -91.1756 94° East 481 554 39,000  Level Kansas City Center
Sun 03:41:45 PM 40.1278 -91.0031 93° East 480 552 39,000  Level Kansas City Center
Sun 03:42:46 PM 40.1183 -90.8103 94° East 476 548 39,000  Level Kansas City Center
Sun 03:43:50 PM 40.1089 -90.6383 94° East 475 547 39,000  Level Kansas City Center
Sun 03:44:50 PM 40.1008 -90.4675 93° East 475 547 39,000  Level Kansas City Center
Sun 03:45:30 PM 40.0933 -90.3314 94° East 474 545 39,000  Level Chicago Center
Sun 03:46:32 PM 40.0836 -90.1608 94° East 475 547 39,000  Level Chicago Center
Sun 03:48:24 PM 40.0664 -89.8514 94° East 479 551 39,000  Level Chicago Center
Sun 03:49:00 PM 40.0614 -89.7478 94° East 478 550 39,000  Level Kansas City Center
Sun 03:50:00 PM 40.0508 -89.5744 94° East 479 551 39,000  Level Kansas City Center
Sun 03:50:28 PM 40.0442 -89.4739 95° East 478 550 39,000  Level Chicago Center
Sun 03:51:30 PM 40.0344 -89.3017 94° East 477 549 39,000  Level Chicago Center
Sun 03:52:05 PM 40.0278 -89.1964 95° East 478 550 39,000  Level Kansas City Center
Sun 03:53:07 PM 40.0164 -89.0264 95° East 475 547 39,000  Level Kansas City Center
Sun 03:54:08 PM 40.0058 -88.8564 95° East 473 544 39,000  Level Kansas City Center
Sun 03:55:41 PM 39.9894 -88.5892 94° East 474 545 39,000  Level Indianapolis Center
Sun 03:56:12 PM 39.9836 -88.5147 96° East 474 545 39,000  Level Kansas City Center
Sun 03:57:16 PM 39.9739 -88.3433 94° East 475 547 39,000  Level Kansas City Center
Sun 03:57:41 PM 39.9644 -88.2425 97° East 474 545 39,000  Level Chicago Center
Sun 03:58:43 PM 39.9519 -88.0728 95° East 472 543 39,000  Level Chicago Center
Sun 03:59:45 PM 39.9392 -87.9000 95° East 477 549 39,000  Level Chicago Center
Sun 04:00:47 PM 39.9256 -87.7133 95° East 476 548 39,000  Level Chicago Center
Sun 04:01:52 PM 39.9094 -87.5225 96° East 479 551 39,000  Level Indianapolis Center
Sun 04:02:54 PM 39.8969 -87.3519 95° East 474 545 39,000  Level Indianapolis Center
Sun 04:03:56 PM 39.8825 -87.1814 96° East 472 543 39,000  Level Indianapolis Center
Sun 04:04:58 PM 39.8697 -87.0111 96° East 470 541 39,000  Level Indianapolis Center
Sun 04:06:00 PM 39.8558 -86.8408 96° East 470 541 39,000  Level Indianapolis Center
Sun 04:07:02 PM 39.8408 -86.6686 96° East 474 545 39,000  Level Indianapolis Center
Sun 04:08:04 PM 39.8247 -86.4978 97° East 474 545 39,000  Level Indianapolis Center
Sun 04:09:06 PM 39.8147 -86.3236 94° East 477 549 39,000  Level Indianapolis Center
Sun 04:10:07 PM 39.8297 -86.1108 85° East 489 563 39,000  Level Indianapolis Center
Sun 04:11:09 PM 39.8397 -85.9364 86° East 485 558 39,000  Level Indianapolis Center
Sun 04:12:11 PM 39.8497 -85.7686 86° East 486 559 39,000  Level Indianapolis Center
Sun 04:13:13 PM 39.8572 -85.5928 87° East 484 557 39,000  Level Indianapolis Center
Sun 04:14:15 PM 39.8669 -85.4164 86° East 483 556 39,000  Level Indianapolis Center
Sun 04:15:17 PM 39.8781 -85.2119 86° East 483 556 39,000  Level Indianapolis Center
Sun 04:16:19 PM 39.8867 -85.0367 86° East 482 555 39,000  Level Indianapolis Center
Sun 04:17:21 PM 39.8953 -84.8606 86° East 482 555 39,000  Level Indianapolis Center
Sun 04:18:23 PM 39.9036 -84.6856 86° East 482 555 39,000  Level Indianapolis Center
Sun 04:19:25 PM 39.9119 -84.5094 86° East 482 555 39,000  Level Indianapolis Center
Sun 04:20:27 PM 39.9203 -84.3333 86° East 484 557 39,000  Level Indianapolis Center
Sun 04:21:29 PM 39.9275 -84.1567 87° East 486 559 39,000  Level Indianapolis Center
Sun 04:22:31 PM 39.9344 -83.9806 87° East 482 555 39,000  Level Indianapolis Center
Sun 04:23:33 PM 39.9419 -83.7731 87° East 486 559 39,000  Level Indianapolis Center
Sun 04:24:35 PM 39.9489 -83.5942 87° East 484 557 39,000  Level Indianapolis Center
Sun 04:25:37 PM 39.9553 -83.4144 87° East 479 551 39,000  Level Indianapolis Center
Sun 04:26:39 PM 39.9617 -83.2353 87° East 482 555 39,000  Level Indianapolis Center
Sun 04:27:41 PM 39.9658 -83.0581 88° East 482 555 39,000  Level Indianapolis Center
Sun 04:28:43 PM 39.9700 -82.8819 88° East 481 554 39,000  Level Indianapolis Center
Sun 04:29:45 PM 39.9761 -82.7050 87° East 484 557 39,000  Level Indianapolis Center
Sun 04:30:47 PM 39.9800 -82.5272 88° East 486 559 39,000  Level Indianapolis Center
Sun 04:31:49 PM 39.9539 -82.3542 101° East 485 558 39,000  Level Indianapolis Center
Sun 04:32:51 PM 39.9269 -82.1819 101° East 481 554 39,000  Level Indianapolis Center
Sun 04:33:53 PM 39.9019 -82.0092 101° East 481 554 39,000  Level Indianapolis Center
Sun 04:34:55 PM 39.8717 -81.8089 101° East 481 554 39,000  Level Indianapolis Center
Sun 04:35:57 PM 39.8456 -81.6367 101° East 480 552 39,000  Level Indianapolis Center
Sun 04:36:16 PM 39.8336 -81.5781 105° East 474 545 39,000  Level Cleveland Center
Sun 04:37:16 PM 39.8078 -81.4100 101° East 468 539 39,000  Level Cleveland Center
Sun 04:38:16 PM 39.7858 -81.2394 99° East 473 544 39,000 -400 Level Cleveland Center
Sun 04:39:16 PM 39.7575 -81.0719 102° East 473 544 38,200 -550 Descending Cleveland Center
Sun 04:40:16 PM 39.7331 -80.9042 101° East 468 539 37,900 -650 Descending Cleveland Center
Sun 04:41:16 PM 39.7064 -80.7394 102° East 468 539 36,900 -950 Descending Cleveland Center
Sun 04:42:16 PM 39.6775 -80.5722 103° East 468 539 36,000 -950 Descending Cleveland Center
Sun 04:43:16 PM 39.6500 -80.4050 102° East 468 539 35,000 -950 Descending Cleveland Center
Sun 04:44:16 PM 39.6206 -80.2381 103° East 468 539 34,100 -1,000 Descending Cleveland Center
Sun 04:44:52 PM 39.6050 -80.1383 101° East 467 537 33,400 -804 Descending Washington Center
Sun 04:45:53 PM 39.5775 -79.9803 103° East 461 531 32,800 -1,300 Descending Washington Center
Sun 04:46:52 PM 39.5519 -79.8253 102° East 454 522 30,800 -1,966 Descending Washington Center
Sun 04:47:52 PM 39.5236 -79.6731 104° East 441 507 28,900 -1,800 Descending Washington Center
Sun 04:48:52 PM 39.4994 -79.5264 102° East 428 493 27,200 -1,350 Descending Washington Center
Sun 04:49:52 PM 39.4767 -79.3906 102° East 428 493 26,200 -1,240 Descending Washington Center
Sun 04:50:53 PM 39.4464 -79.2250 103° East 423 487 24,700 -1,950 Descending Washington Center
Sun 04:51:52 PM 39.4175 -79.0758 104° East 428 493 22,300 -2,218 Descending Washington Center
Sun 04:52:52 PM 39.3925 -78.9297 102° East 423 487 20,300 -1,900 Descending Washington Center
Sun 04:53:52 PM 39.3669 -78.7917 103° East 411 473 18,500 -1,700 Descending Washington Center
Sun 04:54:52 PM 39.3433 -78.6644 103° East 388 447 16,900 -1,900 Descending Washington Center
Sun 04:55:52 PM 39.3192 -78.5372 104° East 368 423 14,700 -2,100 Descending Washington Center
Sun 04:56:52 PM 39.2972 -78.4131 103° East 357 411 12,700 -1,736 Descending Washington Center
Sun 04:57:53 PM 39.2539 -78.3042 117° Southeast 352 405 11,200 -1,200 Descending Washington Center
Sun 04:58:52 PM 39.1928 -78.2375 140° Southeast 311 358 10,300 -900 Descending Washington Center
Sun 04:59:53 PM 39.1167 -78.1975 158° South 291 335 9,400 -950 Descending Washington Center
Sun 05:00:52 PM 39.0422 -78.1625 160° South 286 329 8,400 -1,008 Descending Washington Center
Sun 05:01:52 PM 38.9681 -78.1281 160° South 286 329 7,400 -1,000 Descending Washington Center
Sun 05:02:52 PM 38.8978 -78.0936 159° South 286 329 6,400 -1,000 Descending Washington Center
Sun 05:03:52 PM 38.8256 -78.0592 160° South 286 329 5,400 -700 Descending Washington Center
Sun 05:04:52 PM 38.7575 -78.0222 157° South 281 323 5,000 -149 Descending Washington Center
Sun 05:05:53 PM 38.7217 -77.9439 120° Southeast 254 292 5,100 35 Climbing Washington Center
Sun 05:07:42 PM 38.7333 -77.7833 85° East 257 296 5,100 -35 Level Potomac TRACON
Sun 05:08:43 PM 38.7333 -77.6833 90° East 249 287 5,000 -496 Descending Potomac TRACON
Sun 05:09:43 PM 38.7333 -77.6000 90° East 222 255 4,100 -942 Descending Potomac TRACON
Sun 05:10:44 PM 38.7500 -77.5333 72° East 229 264 3,100 -645 Descending Potomac TRACON
Sun 05:11:44 PM 38.8000 -77.4833 38° Northeast 203 234 2,800 -470 Descending Potomac TRACON
Sun 05:12:39 PM 38.8500 -77.4667 15° North 201 231 2,200 -793 Descending Potomac TRACON
Sun 05:13:45 PM 38.9000 -77.4667 360° North 152 175 1,200 -909 Descending Potomac TRACON

Login

Don't have an account? Register now (free) for customized features, flight alerts, and more!